sensor_id;sensor_type;location;lat;lon;timestamp;temperature;humidity
12726;DHT22;6427;49.754;6.106;2022-08-20T00:00:38;20.10;99.90
12726;DHT22;6427;49.754;6.106;2022-08-20T00:03:10;20.10;99.90
12726;DHT22;6427;49.754;6.106;2022-08-20T00:05:40;20.10;99.90
12726;DHT22;6427;49.754;6.106;2022-08-20T00:08:07;20.00;99.90
12726;DHT22;6427;49.754;6.106;2022-08-20T00:10:35;20.00;99.90
12726;DHT22;6427;49.754;6.106;2022-08-20T00:13:03;20.00;99.90
12726;DHT22;6427;49.754;6.106;2022-08-20T00:15:31;20.00;99.90
12726;DHT22;6427;49.754;6.106;2022-08-20T00:17:58;19.90;99.90
12726;DHT22;6427;49.754;6.106;2022-08-20T00:20:27;20.00;99.90
12726;DHT22;6427;49.754;6.106;2022-08-20T00:22:53;19.90;99.90
12726;DHT22;6427;49.754;6.106;2022-08-20T00:25:21;19.90;99.90
12726;DHT22;6427;49.754;6.106;2022-08-20T00:27:48;19.90;99.90
12726;DHT22;6427;49.754;6.106;2022-08-20T00:30:16;19.90;99.90
12726;DHT22;6427;49.754;6.106;2022-08-20T00:32:47;19.90;99.90
12726;DHT22;6427;49.754;6.106;2022-08-20T00:35:11;19.90;99.90
12726;DHT22;6427;49.754;6.106;2022-08-20T00:37:38;19.90;99.90
12726;DHT22;6427;49.754;6.106;2022-08-20T00:40:06;19.90;99.90
12726;DHT22;6427;49.754;6.106;2022-08-20T00:42:43;19.90;99.90
12726;DHT22;6427;49.754;6.106;2022-08-20T00:45:08;19.90;99.90
12726;DHT22;6427;49.754;6.106;2022-08-20T00:47:35;19.90;99.90
12726;DHT22;6427;49.754;6.106;2022-08-20T00:50:03;19.90;99.90
12726;DHT22;6427;49.754;6.106;2022-08-20T00:52:30;19.90;99.90
12726;DHT22;6427;49.754;6.106;2022-08-20T00:54:58;19.80;99.90
12726;DHT22;6427;49.754;6.106;2022-08-20T00:57:52;19.80;99.90
12726;DHT22;6427;49.754;6.106;2022-08-20T01:00:18;19.80;99.90
12726;DHT22;6427;49.754;6.106;2022-08-20T01:02:42;19.80;99.90
12726;DHT22;6427;49.754;6.106;2022-08-20T01:05:10;19.80;99.90
12726;DHT22;6427;49.754;6.106;2022-08-20T01:07:38;19.80;99.90
12726;DHT22;6427;49.754;6.106;2022-08-20T01:10:10;19.80;99.90
12726;DHT22;6427;49.754;6.106;2022-08-20T01:12:37;19.80;99.90
12726;DHT22;6427;49.754;6.106;2022-08-20T01:15:03;20.00;99.90
12726;DHT22;6427;49.754;6.106;2022-08-20T01:17:31;20.30;99.90
12726;DHT22;6427;49.754;6.106;2022-08-20T01:20:11;20.20;99.90
12726;DHT22;6427;49.754;6.106;2022-08-20T01:23:11;20.20;99.90
12726;DHT22;6427;49.754;6.106;2022-08-20T01:26:04;20.20;99.90
12726;DHT22;6427;49.754;6.106;2022-08-20T01:28:41;20.10;99.90
12726;DHT22;6427;49.754;6.106;2022-08-20T01:31:05;20.10;99.90
12726;DHT22;6427;49.754;6.106;2022-08-20T01:33:32;19.90;99.90
12726;DHT22;6427;49.754;6.106;2022-08-20T01:36:00;19.90;99.90
12726;DHT22;6427;49.754;6.106;2022-08-20T01:38:28;19.80;99.90
12726;DHT22;6427;49.754;6.106;2022-08-20T01:41:32;19.80;99.90
12726;DHT22;6427;49.754;6.106;2022-08-20T01:43:56;20.00;99.90
12726;DHT22;6427;49.754;6.106;2022-08-20T01:46:34;19.90;99.90
12726;DHT22;6427;49.754;6.106;2022-08-20T01:48:58;19.80;99.90
12726;DHT22;6427;49.754;6.106;2022-08-20T01:51:27;20.00;99.90
12726;DHT22;6427;49.754;6.106;2022-08-20T01:53:54;20.00;99.90
12726;DHT22;6427;49.754;6.106;2022-08-20T01:56:22;19.90;99.90
12726;DHT22;6427;49.754;6.106;2022-08-20T01:58:49;19.80;99.90
12726;DHT22;6427;49.754;6.106;2022-08-20T02:01:38;19.70;99.90
12726;DHT22;6427;49.754;6.106;2022-08-20T02:04:03;19.70;99.90
12726;DHT22;6427;49.754;6.106;2022-08-20T02:06:31;19.70;99.90
12726;DHT22;6427;49.754;6.106;2022-08-20T02:08:58;19.60;99.90
12726;DHT22;6427;49.754;6.106;2022-08-20T02:11:25;19.60;99.90
12726;DHT22;6427;49.754;6.106;2022-08-20T02:13:53;19.60;99.90
12726;DHT22;6427;49.754;6.106;2022-08-20T02:16:27;19.50;99.90
12726;DHT22;6427;49.754;6.106;2022-08-20T02:18:51;19.50;99.90
12726;DHT22;6427;49.754;6.106;2022-08-20T02:21:19;19.50;99.90
12726;DHT22;6427;49.754;6.106;2022-08-20T02:23:46;19.50;99.90
12726;DHT22;6427;49.754;6.106;2022-08-20T02:26:14;19.50;99.90
12726;DHT22;6427;49.754;6.106;2022-08-20T02:28:42;19.50;99.90
12726;DHT22;6427;49.754;6.106;2022-08-20T02:31:09;19.50;99.90
12726;DHT22;6427;49.754;6.106;2022-08-20T02:33:37;19.50;99.90
12726;DHT22;6427;49.754;6.106;2022-08-20T02:36:05;19.40;99.90
12726;DHT22;6427;49.754;6.106;2022-08-20T02:38:32;19.50;99.90
12726;DHT22;6427;49.754;6.106;2022-08-20T02:41:00;19.50;99.90
12726;DHT22;6427;49.754;6.106;2022-08-20T02:43:28;19.70;99.90
12726;DHT22;6427;49.754;6.106;2022-08-20T02:45:56;19.60;99.90
12726;DHT22;6427;49.754;6.106;2022-08-20T02:48:24;19.60;99.90
12726;DHT22;6427;49.754;6.106;2022-08-20T02:50:52;19.60;99.90
12726;DHT22;6427;49.754;6.106;2022-08-20T02:53:20;19.60;99.90
12726;DHT22;6427;49.754;6.106;2022-08-20T02:55:48;19.50;99.90
12726;DHT22;6427;49.754;6.106;2022-08-20T02:58:15;19.50;99.90
12726;DHT22;6427;49.754;6.106;2022-08-20T03:00:43;19.50;99.90
12726;DHT22;6427;49.754;6.106;2022-08-20T03:03:11;19.50;99.90
12726;DHT22;6427;49.754;6.106;2022-08-20T03:05:39;19.50;99.90
12726;DHT22;6427;49.754;6.106;2022-08-20T03:08:06;19.40;99.90
12726;DHT22;6427;49.754;6.106;2022-08-20T03:10:34;19.40;99.90
12726;DHT22;6427;49.754;6.106;2022-08-20T03:13:01;19.40;99.90
12726;DHT22;6427;49.754;6.106;2022-08-20T03:15:29;19.40;99.90
12726;DHT22;6427;49.754;6.106;2022-08-20T03:17:56;19.40;99.90
12726;DHT22;6427;49.754;6.106;2022-08-20T03:20:24;19.40;99.90
12726;DHT22;6427;49.754;6.106;2022-08-20T03:22:51;19.40;99.90
12726;DHT22;6427;49.754;6.106;2022-08-20T03:25:19;19.40;99.90
12726;DHT22;6427;49.754;6.106;2022-08-20T03:27:46;19.40;99.90
12726;DHT22;6427;49.754;6.106;2022-08-20T03:30:15;19.40;99.90
12726;DHT22;6427;49.754;6.106;2022-08-20T03:32:42;19.40;99.90
12726;DHT22;6427;49.754;6.106;2022-08-20T03:35:11;19.40;99.90
12726;DHT22;6427;49.754;6.106;2022-08-20T03:37:38;19.30;99.90
12726;DHT22;6427;49.754;6.106;2022-08-20T03:40:06;19.60;99.90
12726;DHT22;6427;49.754;6.106;2022-08-20T03:42:33;19.60;99.90
12726;DHT22;6427;49.754;6.106;2022-08-20T03:45:00;19.50;99.90
12726;DHT22;6427;49.754;6.106;2022-08-20T03:47:28;19.70;99.90
12726;DHT22;6427;49.754;6.106;2022-08-20T03:49:59;19.60;99.90
12726;DHT22;6427;49.754;6.106;2022-08-20T03:52:26;19.60;99.90
12726;DHT22;6427;49.754;6.106;2022-08-20T03:54:54;19.50;99.90
12726;DHT22;6427;49.754;6.106;2022-08-20T03:57:21;19.40;99.90
12726;DHT22;6427;49.754;6.106;2022-08-20T03:59:49;19.60;99.90
12726;DHT22;6427;49.754;6.106;2022-08-20T04:02:16;19.60;99.90
12726;DHT22;6427;49.754;6.106;2022-08-20T04:04:44;19.70;99.90
12726;DHT22;6427;49.754;6.106;2022-08-20T04:07:13;19.60;99.90
12726;DHT22;6427;49.754;6.106;2022-08-20T04:09:39;19.50;99.90
12726;DHT22;6427;49.754;6.106;2022-08-20T04:12:08;19.30;99.90
12726;DHT22;6427;49.754;6.106;2022-08-20T04:14:35;19.20;99.90
12726;DHT22;6427;49.754;6.106;2022-08-20T04:17:06;19.20;99.90
12726;DHT22;6427;49.754;6.106;2022-08-20T04:19:34;19.20;99.90
12726;DHT22;6427;49.754;6.106;2022-08-20T04:22:01;19.20;99.90
12726;DHT22;6427;49.754;6.106;2022-08-20T04:24:29;19.20;99.90
12726;DHT22;6427;49.754;6.106;2022-08-20T04:26:56;19.10;99.90
12726;DHT22;6427;49.754;6.106;2022-08-20T04:29:24;19.00;99.90
12726;DHT22;6427;49.754;6.106;2022-08-20T04:31:52;18.90;99.90
12726;DHT22;6427;49.754;6.106;2022-08-20T04:34:19;18.80;99.90
12726;DHT22;6427;49.754;6.106;2022-08-20T04:36:47;18.70;99.90
12726;DHT22;6427;49.754;6.106;2022-08-20T04:39:15;18.70;99.90
12726;DHT22;6427;49.754;6.106;2022-08-20T04:41:43;18.60;99.90
12726;DHT22;6427;49.754;6.106;2022-08-20T04:44:11;18.50;99.90
12726;DHT22;6427;49.754;6.106;2022-08-20T04:46:39;18.70;99.90
12726;DHT22;6427;49.754;6.106;2022-08-20T04:49:06;18.60;99.90
12726;DHT22;6427;49.754;6.106;2022-08-20T04:51:34;18.50;99.90
12726;DHT22;6427;49.754;6.106;2022-08-20T04:54:03;18.50;99.90
12726;DHT22;6427;49.754;6.106;2022-08-20T04:56:31;18.30;99.90
12726;DHT22;6427;49.754;6.106;2022-08-20T04:58:59;18.30;99.90
12726;DHT22;6427;49.754;6.106;2022-08-20T05:01:26;18.20;99.90
12726;DHT22;6427;49.754;6.106;2022-08-20T05:03:53;18.10;99.90
12726;DHT22;6427;49.754;6.106;2022-08-20T05:06:25;17.90;99.90
12726;DHT22;6427;49.754;6.106;2022-08-20T05:08:50;17.80;99.90
12726;DHT22;6427;49.754;6.106;2022-08-20T05:11:18;17.80;99.90
12726;DHT22;6427;49.754;6.106;2022-08-20T05:13:45;17.90;99.90
12726;DHT22;6427;49.754;6.106;2022-08-20T05:16:14;18.30;99.90
12726;DHT22;6427;49.754;6.106;2022-08-20T05:18:41;18.30;99.90
12726;DHT22;6427;49.754;6.106;2022-08-20T05:21:09;18.20;99.90
12726;DHT22;6427;49.754;6.106;2022-08-20T05:23:37;18.10;99.90
12726;DHT22;6427;49.754;6.106;2022-08-20T05:26:04;17.90;99.90
12726;DHT22;6427;49.754;6.106;2022-08-20T05:28:31;17.90;99.90
12726;DHT22;6427;49.754;6.106;2022-08-20T05:31:01;17.70;99.90
12726;DHT22;6427;49.754;6.106;2022-08-20T05:33:28;17.60;99.90
12726;DHT22;6427;49.754;6.106;2022-08-20T05:35:56;17.60;99.90
12726;DHT22;6427;49.754;6.106;2022-08-20T05:38:24;17.50;99.90
12726;DHT22;6427;49.754;6.106;2022-08-20T05:40:51;17.40;99.90
12726;DHT22;6427;49.754;6.106;2022-08-20T05:43:19;17.40;99.90
12726;DHT22;6427;49.754;6.106;2022-08-20T05:45:47;17.30;99.90
12726;DHT22;6427;49.754;6.106;2022-08-20T05:48:16;17.20;99.90
12726;DHT22;6427;49.754;6.106;2022-08-20T05:50:43;17.20;99.90
12726;DHT22;6427;49.754;6.106;2022-08-20T05:53:11;17.40;99.90
12726;DHT22;6427;49.754;6.106;2022-08-20T05:55:38;17.40;99.90
12726;DHT22;6427;49.754;6.106;2022-08-20T05:58:07;17.30;99.90
12726;DHT22;6427;49.754;6.106;2022-08-20T06:00:34;17.50;99.90
12726;DHT22;6427;49.754;6.106;2022-08-20T06:03:02;17.70;99.90
12726;DHT22;6427;49.754;6.106;2022-08-20T06:05:48;17.60;99.90
12726;DHT22;6427;49.754;6.106;2022-08-20T06:08:16;17.60;99.90
12726;DHT22;6427;49.754;6.106;2022-08-20T06:10:43;17.50;99.90
12726;DHT22;6427;49.754;6.106;2022-08-20T06:13:11;17.60;99.90
12726;DHT22;6427;49.754;6.106;2022-08-20T06:15:39;17.70;99.90
12726;DHT22;6427;49.754;6.106;2022-08-20T06:18:07;17.70;99.90
12726;DHT22;6427;49.754;6.106;2022-08-20T06:20:35;17.60;99.90
12726;DHT22;6427;49.754;6.106;2022-08-20T06:23:03;17.40;99.90
12726;DHT22;6427;49.754;6.106;2022-08-20T06:25:30;17.50;99.90
12726;DHT22;6427;49.754;6.106;2022-08-20T06:27:57;17.40;99.90
12726;DHT22;6427;49.754;6.106;2022-08-20T06:30:25;17.20;99.90
12726;DHT22;6427;49.754;6.106;2022-08-20T06:32:53;17.10;99.90
12726;DHT22;6427;49.754;6.106;2022-08-20T06:35:20;17.00;99.90
12726;DHT22;6427;49.754;6.106;2022-08-20T06:37:49;16.90;99.90
12726;DHT22;6427;49.754;6.106;2022-08-20T06:40:18;16.90;99.90
12726;DHT22;6427;49.754;6.106;2022-08-20T06:42:45;16.80;99.90
12726;DHT22;6427;49.754;6.106;2022-08-20T06:45:13;16.80;99.90
12726;DHT22;6427;49.754;6.106;2022-08-20T06:47:40;16.80;99.90
12726;DHT22;6427;49.754;6.106;2022-08-20T06:50:16;16.70;99.90
12726;DHT22;6427;49.754;6.106;2022-08-20T06:52:42;16.70;99.90
12726;DHT22;6427;49.754;6.106;2022-08-20T06:55:10;16.70;99.90
12726;DHT22;6427;49.754;6.106;2022-08-20T06:57:38;16.70;99.90
12726;DHT22;6427;49.754;6.106;2022-08-20T07:00:08;16.70;99.90
12726;DHT22;6427;49.754;6.106;2022-08-20T07:02:34;16.70;99.90
12726;DHT22;6427;49.754;6.106;2022-08-20T07:05:02;17.00;99.90
12726;DHT22;6427;49.754;6.106;2022-08-20T07:07:30;17.10;99.90
12726;DHT22;6427;49.754;6.106;2022-08-20T07:10:05;17.00;99.90
12726;DHT22;6427;49.754;6.106;2022-08-20T07:12:32;17.00;99.90
12726;DHT22;6427;49.754;6.106;2022-08-20T07:14:59;17.00;99.90
12726;DHT22;6427;49.754;6.106;2022-08-20T07:17:27;17.00;99.90
12726;DHT22;6427;49.754;6.106;2022-08-20T07:19:54;17.30;99.90
12726;DHT22;6427;49.754;6.106;2022-08-20T07:22:23;17.30;99.90
12726;DHT22;6427;49.754;6.106;2022-08-20T07:24:50;17.30;99.90
12726;DHT22;6427;49.754;6.106;2022-08-20T07:27:21;17.40;99.90
12726;DHT22;6427;49.754;6.106;2022-08-20T07:29:48;17.60;99.90
12726;DHT22;6427;49.754;6.106;2022-08-20T07:32:35;17.70;99.90
12726;DHT22;6427;49.754;6.106;2022-08-20T07:35:06;17.60;99.90
12726;DHT22;6427;49.754;6.106;2022-08-20T07:37:36;17.70;99.90
12726;DHT22;6427;49.754;6.106;2022-08-20T07:40:04;17.70;99.90
12726;DHT22;6427;49.754;6.106;2022-08-20T07:42:31;17.70;99.90
12726;DHT22;6427;49.754;6.106;2022-08-20T07:44:59;18.00;99.90
12726;DHT22;6427;49.754;6.106;2022-08-20T07:47:27;18.00;99.90
12726;DHT22;6427;49.754;6.106;2022-08-20T07:49:54;18.30;99.90
12726;DHT22;6427;49.754;6.106;2022-08-20T07:52:22;18.30;99.90
12726;DHT22;6427;49.754;6.106;2022-08-20T07:54:50;18.50;99.90
12726;DHT22;6427;49.754;6.106;2022-08-20T07:57:17;18.50;99.90
12726;DHT22;6427;49.754;6.106;2022-08-20T07:59:45;18.40;99.90
12726;DHT22;6427;49.754;6.106;2022-08-20T08:02:13;18.40;99.90
12726;DHT22;6427;49.754;6.106;2022-08-20T08:04:41;18.40;99.90
12726;DHT22;6427;49.754;6.106;2022-08-20T08:07:09;18.40;99.90
12726;DHT22;6427;49.754;6.106;2022-08-20T08:09:37;18.40;99.90
12726;DHT22;6427;49.754;6.106;2022-08-20T08:12:04;18.40;99.90
12726;DHT22;6427;49.754;6.106;2022-08-20T08:14:32;18.40;99.90
12726;DHT22;6427;49.754;6.106;2022-08-20T08:17:00;18.40;99.90
12726;DHT22;6427;49.754;6.106;2022-08-20T08:19:27;18.40;99.90
12726;DHT22;6427;49.754;6.106;2022-08-20T08:21:54;18.50;99.90
12726;DHT22;6427;49.754;6.106;2022-08-20T08:24:22;18.50;99.90
12726;DHT22;6427;49.754;6.106;2022-08-20T08:26:50;18.60;99.90
12726;DHT22;6427;49.754;6.106;2022-08-20T08:29:18;18.90;99.90
12726;DHT22;6427;49.754;6.106;2022-08-20T08:31:46;18.90;99.90
12726;DHT22;6427;49.754;6.106;2022-08-20T08:34:14;19.00;99.90
12726;DHT22;6427;49.754;6.106;2022-08-20T08:36:41;18.90;99.90
12726;DHT22;6427;49.754;6.106;2022-08-20T08:39:09;19.00;99.90
12726;DHT22;6427;49.754;6.106;2022-08-20T08:41:41;19.00;99.90
12726;DHT22;6427;49.754;6.106;2022-08-20T08:44:11;19.10;99.90
12726;DHT22;6427;49.754;6.106;2022-08-20T08:46:39;19.20;99.90
12726;DHT22;6427;49.754;6.106;2022-08-20T08:49:06;19.80;99.90
12726;DHT22;6427;49.754;6.106;2022-08-20T08:51:38;19.80;99.90
12726;DHT22;6427;49.754;6.106;2022-08-20T08:54:04;19.80;99.90
12726;DHT22;6427;49.754;6.106;2022-08-20T08:56:31;19.80;99.90
12726;DHT22;6427;49.754;6.106;2022-08-20T08:59:06;20.00;99.90
12726;DHT22;6427;49.754;6.106;2022-08-20T09:01:30;19.90;99.90
12726;DHT22;6427;49.754;6.106;2022-08-20T09:03:57;19.90;99.90
12726;DHT22;6427;49.754;6.106;2022-08-20T09:06:25;19.90;99.90
12726;DHT22;6427;49.754;6.106;2022-08-20T09:08:55;19.90;99.90
12726;DHT22;6427;49.754;6.106;2022-08-20T09:11:21;20.10;99.90
12726;DHT22;6427;49.754;6.106;2022-08-20T09:13:50;20.60;99.50
12726;DHT22;6427;49.754;6.106;2022-08-20T09:16:17;20.60;99.50
12726;DHT22;6427;49.754;6.106;2022-08-20T09:18:45;20.50;99.50
12726;DHT22;6427;49.754;6.106;2022-08-20T09:21:12;20.40;99.40
12726;DHT22;6427;49.754;6.106;2022-08-20T09:23:41;20.30;99.50
12726;DHT22;6427;49.754;6.106;2022-08-20T09:26:09;20.30;99.70
12726;DHT22;6427;49.754;6.106;2022-08-20T09:28:36;20.30;99.70
12726;DHT22;6427;49.754;6.106;2022-08-20T09:31:04;20.30;99.80
12726;DHT22;6427;49.754;6.106;2022-08-20T09:33:32;20.40;99.70
12726;DHT22;6427;49.754;6.106;2022-08-20T09:35:59;20.40;99.70
12726;DHT22;6427;49.754;6.106;2022-08-20T09:38:27;20.40;99.50
12726;DHT22;6427;49.754;6.106;2022-08-20T09:40:55;20.50;99.80
12726;DHT22;6427;49.754;6.106;2022-08-20T09:43:22;20.60;99.80
12726;DHT22;6427;49.754;6.106;2022-08-20T09:45:50;20.60;99.50
12726;DHT22;6427;49.754;6.106;2022-08-20T09:48:17;20.70;99.50
12726;DHT22;6427;49.754;6.106;2022-08-20T09:50:46;21.00;98.80
12726;DHT22;6427;49.754;6.106;2022-08-20T09:53:13;21.30;97.70
12726;DHT22;6427;49.754;6.106;2022-08-20T09:55:44;21.30;97.60
12726;DHT22;6427;49.754;6.106;2022-08-20T10:01:44;21.50;96.10
12726;DHT22;6427;49.754;6.106;2022-08-20T10:04:11;21.60;95.70
12726;DHT22;6427;49.754;6.106;2022-08-20T10:06:39;21.90;94.70
12726;DHT22;6427;49.754;6.106;2022-08-20T10:09:07;21.90;94.30
12726;DHT22;6427;49.754;6.106;2022-08-20T10:11:35;21.90;93.70
12726;DHT22;6427;49.754;6.106;2022-08-20T10:14:03;21.90;93.40
12726;DHT22;6427;49.754;6.106;2022-08-20T10:16:31;21.90;93.40
12726;DHT22;6427;49.754;6.106;2022-08-20T10:18:58;21.90;93.20
12726;DHT22;6427;49.754;6.106;2022-08-20T10:21:26;21.90;93.40
12726;DHT22;6427;49.754;6.106;2022-08-20T10:23:54;22.00;93.00
12726;DHT22;6427;49.754;6.106;2022-08-20T10:26:22;22.00;93.00
12726;DHT22;6427;49.754;6.106;2022-08-20T10:28:49;22.00;92.50
12726;DHT22;6427;49.754;6.106;2022-08-20T10:31:18;22.30;92.10
12726;DHT22;6427;49.754;6.106;2022-08-20T10:33:45;22.30;92.00
12726;DHT22;6427;49.754;6.106;2022-08-20T10:36:14;22.40;91.70
12726;DHT22;6427;49.754;6.106;2022-08-20T10:38:41;22.40;91.80
12726;DHT22;6427;49.754;6.106;2022-08-20T10:41:08;22.50;91.70
12726;DHT22;6427;49.754;6.106;2022-08-20T10:43:37;22.60;91.70
12726;DHT22;6427;49.754;6.106;2022-08-20T10:46:04;22.60;90.80
12726;DHT22;6427;49.754;6.106;2022-08-20T10:48:32;22.70;90.30
12726;DHT22;6427;49.754;6.106;2022-08-20T10:50:59;22.80;90.00
12726;DHT22;6427;49.754;6.106;2022-08-20T10:53:27;22.90;89.40
12726;DHT22;6427;49.754;6.106;2022-08-20T10:55:55;23.00;88.50
12726;DHT22;6427;49.754;6.106;2022-08-20T10:58:23;23.10;88.30
12726;DHT22;6427;49.754;6.106;2022-08-20T11:00:50;23.20;87.20
12726;DHT22;6427;49.754;6.106;2022-08-20T11:03:18;23.30;86.10
12726;DHT22;6427;49.754;6.106;2022-08-20T11:05:46;23.30;84.70
12726;DHT22;6427;49.754;6.106;2022-08-20T11:08:13;23.30;84.60
12726;DHT22;6427;49.754;6.106;2022-08-20T11:10:42;23.50;81.90
12726;DHT22;6427;49.754;6.106;2022-08-20T11:13:09;23.50;81.80
12726;DHT22;6427;49.754;6.106;2022-08-20T11:15:38;23.60;81.40
12726;DHT22;6427;49.754;6.106;2022-08-20T11:18:05;23.80;81.00
12726;DHT22;6427;49.754;6.106;2022-08-20T11:20:33;23.80;80.90
12726;DHT22;6427;49.754;6.106;2022-08-20T11:23:00;23.90;79.60
12726;DHT22;6427;49.754;6.106;2022-08-20T11:25:30;23.90;77.60
12726;DHT22;6427;49.754;6.106;2022-08-20T11:27:57;23.90;77.60
12726;DHT22;6427;49.754;6.106;2022-08-20T11:30:29;24.00;76.70
12726;DHT22;6427;49.754;6.106;2022-08-20T11:32:55;24.00;75.50
12726;DHT22;6427;49.754;6.106;2022-08-20T11:35:24;24.10;74.70
12726;DHT22;6427;49.754;6.106;2022-08-20T11:37:51;24.10;75.10
12726;DHT22;6427;49.754;6.106;2022-08-20T11:40:18;24.20;74.20
12726;DHT22;6427;49.754;6.106;2022-08-20T11:42:46;24.30;73.30
12726;DHT22;6427;49.754;6.106;2022-08-20T11:45:14;24.30;72.00
12726;DHT22;6427;49.754;6.106;2022-08-20T11:47:41;24.30;70.80
12726;DHT22;6427;49.754;6.106;2022-08-20T11:50:10;24.30;69.90
12726;DHT22;6427;49.754;6.106;2022-08-20T11:52:36;24.40;69.80
12726;DHT22;6427;49.754;6.106;2022-08-20T11:55:04;24.60;65.20
12726;DHT22;6427;49.754;6.106;2022-08-20T11:57:33;24.70;65.30
12726;DHT22;6427;49.754;6.106;2022-08-20T12:00:01;24.70;63.20
12726;DHT22;6427;49.754;6.106;2022-08-20T12:02:27;24.70;63.10
12726;DHT22;6427;49.754;6.106;2022-08-20T12:04:55;24.70;62.70
12726;DHT22;6427;49.754;6.106;2022-08-20T12:07:23;24.70;62.80
12726;DHT22;6427;49.754;6.106;2022-08-20T12:09:51;24.70;62.40
12726;DHT22;6427;49.754;6.106;2022-08-20T12:12:20;24.70;61.90
12726;DHT22;6427;49.754;6.106;2022-08-20T12:14:46;24.70;61.90
12726;DHT22;6427;49.754;6.106;2022-08-20T12:17:20;24.70;61.40
12726;DHT22;6427;49.754;6.106;2022-08-20T12:19:43;24.90;61.10
12726;DHT22;6427;49.754;6.106;2022-08-20T12:22:11;24.90;60.20
12726;DHT22;6427;49.754;6.106;2022-08-20T12:24:38;25.00;60.00
12726;DHT22;6427;49.754;6.106;2022-08-20T12:27:12;25.00;59.40
12726;DHT22;6427;49.754;6.106;2022-08-20T12:29:39;25.10;59.50
12726;DHT22;6427;49.754;6.106;2022-08-20T12:32:07;25.20;56.80
12726;DHT22;6427;49.754;6.106;2022-08-20T12:34:36;25.20;56.80
12726;DHT22;6427;49.754;6.106;2022-08-20T12:37:06;25.30;56.30
12726;DHT22;6427;49.754;6.106;2022-08-20T12:39:31;25.30;56.30
12726;DHT22;6427;49.754;6.106;2022-08-20T12:42:00;25.40;56.30
12726;DHT22;6427;49.754;6.106;2022-08-20T12:44:27;25.70;55.30
12726;DHT22;6427;49.754;6.106;2022-08-20T12:47:14;25.80;54.60
12726;DHT22;6427;49.754;6.106;2022-08-20T12:49:38;26.00;53.40
12726;DHT22;6427;49.754;6.106;2022-08-20T12:52:06;26.00;53.30
12726;DHT22;6427;49.754;6.106;2022-08-20T12:54:33;26.00;53.50
12726;DHT22;6427;49.754;6.106;2022-08-20T12:57:01;26.00;53.50
12726;DHT22;6427;49.754;6.106;2022-08-20T12:59:29;26.30;52.00
12726;DHT22;6427;49.754;6.106;2022-08-20T13:01:56;26.20;51.90
12726;DHT22;6427;49.754;6.106;2022-08-20T13:04:24;26.20;51.10
12726;DHT22;6427;49.754;6.106;2022-08-20T13:06:52;26.20;51.00
12726;DHT22;6427;49.754;6.106;2022-08-20T13:09:19;26.10;50.90
12726;DHT22;6427;49.754;6.106;2022-08-20T13:11:47;26.10;50.50
12726;DHT22;6427;49.754;6.106;2022-08-20T13:14:14;26.00;50.30
12726;DHT22;6427;49.754;6.106;2022-08-20T13:16:42;26.10;49.90
12726;DHT22;6427;49.754;6.106;2022-08-20T13:19:09;26.10;49.30
12726;DHT22;6427;49.754;6.106;2022-08-20T13:21:37;26.10;48.90
12726;DHT22;6427;49.754;6.106;2022-08-20T13:24:05;26.10;48.20
12726;DHT22;6427;49.754;6.106;2022-08-20T13:26:32;26.10;48.20
12726;DHT22;6427;49.754;6.106;2022-08-20T13:29:01;26.30;48.00
12726;DHT22;6427;49.754;6.106;2022-08-20T13:31:28;26.20;48.00
12726;DHT22;6427;49.754;6.106;2022-08-20T13:33:57;26.50;48.00
12726;DHT22;6427;49.754;6.106;2022-08-20T13:36:24;26.50;47.90
12726;DHT22;6427;49.754;6.106;2022-08-20T13:38:52;26.70;47.90
12726;DHT22;6427;49.754;6.106;2022-08-20T13:41:19;26.70;48.00
12726;DHT22;6427;49.754;6.106;2022-08-20T13:43:47;26.70;46.70
12726;DHT22;6427;49.754;6.106;2022-08-20T13:46:15;26.80;46.30
12726;DHT22;6427;49.754;6.106;2022-08-20T13:48:42;26.80;45.90
12726;DHT22;6427;49.754;6.106;2022-08-20T13:51:10;26.80;46.20
12726;DHT22;6427;49.754;6.106;2022-08-20T13:53:37;26.90;46.10
12726;DHT22;6427;49.754;6.106;2022-08-20T13:56:06;27.00;46.40
12726;DHT22;6427;49.754;6.106;2022-08-20T13:58:33;26.90;46.60
12726;DHT22;6427;49.754;6.106;2022-08-20T14:01:01;27.10;46.30
12726;DHT22;6427;49.754;6.106;2022-08-20T14:03:29;27.20;46.40
12726;DHT22;6427;49.754;6.106;2022-08-20T14:05:56;27.10;46.70
12726;DHT22;6427;49.754;6.106;2022-08-20T14:08:24;27.10;47.00
12726;DHT22;6427;49.754;6.106;2022-08-20T14:10:51;27.10;46.90
12726;DHT22;6427;49.754;6.106;2022-08-20T14:13:20;27.10;46.70
12726;DHT22;6427;49.754;6.106;2022-08-20T14:15:46;27.20;47.00
12726;DHT22;6427;49.754;6.106;2022-08-20T14:18:14;27.40;46.80
12726;DHT22;6427;49.754;6.106;2022-08-20T14:20:42;27.60;46.30
12726;DHT22;6427;49.754;6.106;2022-08-20T14:23:09;27.60;45.20
12726;DHT22;6427;49.754;6.106;2022-08-20T14:25:37;27.50;45.70
12726;DHT22;6427;49.754;6.106;2022-08-20T14:28:11;27.50;45.90
12726;DHT22;6427;49.754;6.106;2022-08-20T14:30:38;27.50;45.90
12726;DHT22;6427;49.754;6.106;2022-08-20T14:33:06;27.60;45.80
12726;DHT22;6427;49.754;6.106;2022-08-20T14:35:34;27.70;45.40
12726;DHT22;6427;49.754;6.106;2022-08-20T14:38:01;27.70;45.40
12726;DHT22;6427;49.754;6.106;2022-08-20T14:40:29;27.80;45.20
12726;DHT22;6427;49.754;6.106;2022-08-20T14:42:57;27.70;45.10
12726;DHT22;6427;49.754;6.106;2022-08-20T14:45:25;27.80;45.30
12726;DHT22;6427;49.754;6.106;2022-08-20T14:47:53;27.90;45.30
12726;DHT22;6427;49.754;6.106;2022-08-20T14:50:25;28.00;45.70
12726;DHT22;6427;49.754;6.106;2022-08-20T14:52:51;28.00;45.10
12726;DHT22;6427;49.754;6.106;2022-08-20T14:55:20;28.10;44.70
12726;DHT22;6427;49.754;6.106;2022-08-20T14:57:47;28.20;44.50
12726;DHT22;6427;49.754;6.106;2022-08-20T15:00:19;28.30;44.30
12726;DHT22;6427;49.754;6.106;2022-08-20T15:02:45;28.40;43.90
12726;DHT22;6427;49.754;6.106;2022-08-20T15:05:13;28.70;43.10
12726;DHT22;6427;49.754;6.106;2022-08-20T15:07:41;28.80;42.70
12726;DHT22;6427;49.754;6.106;2022-08-20T15:10:10;28.80;42.70
12726;DHT22;6427;49.754;6.106;2022-08-20T15:12:36;28.90;43.10
12726;DHT22;6427;49.754;6.106;2022-08-20T15:15:04;28.90;42.50
12726;DHT22;6427;49.754;6.106;2022-08-20T15:17:32;29.00;42.50
12726;DHT22;6427;49.754;6.106;2022-08-20T15:20:06;29.10;42.20
12726;DHT22;6427;49.754;6.106;2022-08-20T15:22:29;29.40;41.90
12726;DHT22;6427;49.754;6.106;2022-08-20T15:24:57;29.60;40.80
12726;DHT22;6427;49.754;6.106;2022-08-20T15:27:24;29.60;40.90
12726;DHT22;6427;49.754;6.106;2022-08-20T15:29:53;29.60;41.20
12726;DHT22;6427;49.754;6.106;2022-08-20T15:32:20;29.60;41.10
12726;DHT22;6427;49.754;6.106;2022-08-20T15:34:48;29.60;41.40
12726;DHT22;6427;49.754;6.106;2022-08-20T15:37:17;29.70;40.00
12726;DHT22;6427;49.754;6.106;2022-08-20T15:39:45;29.90;39.20
12726;DHT22;6427;49.754;6.106;2022-08-20T15:42:12;29.90;38.90
12726;DHT22;6427;49.754;6.106;2022-08-20T15:44:40;29.90;39.20
12726;DHT22;6427;49.754;6.106;2022-08-20T15:47:24;30.00;39.20
12726;DHT22;6427;49.754;6.106;2022-08-20T15:49:52;30.20;38.30
12726;DHT22;6427;49.754;6.106;2022-08-20T15:52:17;30.30;38.70
12726;DHT22;6427;49.754;6.106;2022-08-20T15:54:45;30.20;38.80